Tiempo atmosférico en la estación meteorológica de Puerto El Pico, Ávila (1285 m.)



Fecha
DESCASC
Temp. máxima en grados centígrados (hora)
DESCASC
Temp. mínima en grados centígrados (hora)
DESCASC
Temp. media en grados centígrados
DESCASC
Racha de viento máxima en m/sg (hora)
DESCASC
Velocidad máxima media en intervalos de 10 minutos(hora)
DESCASC
Precipitaciones diarias en mm
DESCASC
Precipitaciones de 00:00 a 06:00 en mm
DESCASC
Precipitaciones de 06:00 a 12:00 en mm
DESCASC
Precipitaciones de 12:00 a 18:00 en mm
DESCASC
Precipitaciones de 18:00 a 24:00 en mm
DESCASC
14-07-2019 27.8 (17:40) 10.1 (00:00) 18.9 8.61 (12:30) 5.83 (12:40) 0 0 0 0 0
13-07-2019 26.6 (17:00) 14.8 (00:00) 20.7 10 (17:40) 5.28 (14:20) 0.8 0 0.8 0 0
12-07-2019 31.7 (14:40) 9.2 (00:00) 20.5 10 (15:30) 6.11 (15:30) 0 0 0 0 0
11-07-2019 31.6 (17:20) 5.9 (00:00) 18.8 8.61 (17:10) 4.72 (15:20) 0 0 0 0 0
10-07-2019 27.3 (18:20) 5.2 (00:00) 16.2 7.22 (12:10) 3.89 (14:50) 0 0 0 0 0
09-07-2019 23 (18:30) 3.3 (00:00) 13.1 9.17 (18:20) 7.22 (18:10) 0 0 0 0 0
08-07-2019 22.9 (16:10) 4.1 (00:00) 13.5 10.83 (15:50) 5.28 (16:30) 0 0 0 0 0
07-07-2019 26.9 (18:50) 4.2 (00:00) 15.5 10 (12:40) 5.83 (12:30) 0 0 0 0 0
06-07-2019 25.4 (18:20) 4.6 (00:00) 15 10.28 (15:40) 5.28 (14:10) 0 0 0 0 0
05-07-2019 25.3 (17:20) 5.2 (00:00) 15.2 10.28 (15:30) 5.56 (15:20) 0 0 0 0 0
04-07-2019 24.9 (16:00) 8.6 (00:00) 16.8 7.78 (15:40) 4.72 (15:40) 3.8 0 3.8 0 0
03-07-2019 28.2 (17:50) 8.2 (00:00) 18.2 10 (15:00) 5 (16:00) 0 0 0 0 0
02-07-2019 28.1 (16:20) 6.2 (07:00) 17.2 9.17 (15:20) 4.72 (12:30) 0 0 0 0 0
01-07-2019 28.1 (18:10) 9.8 (07:00) 19 9.44 (16:20) 5.83 (16:00) 0 0 0 0 0
30-06-2019 30 (17:40) 9.3 (00:00) 19.7 10.28 (15:00) 5.83 (15:00) 0 0 0 0 0
29-06-2019 33.3 (17:30) 10.8 (00:00) 22 7.5 (15:00) 4.17 (14:20) 0 0 0 0 0
28-06-2019 34.5 (19:20) 10.1 (00:00) 22.3 12.22 (16:30) 5.83 (16:30) 0 0 0 0 0
27-06-2019 28.9 (17:50) 9.4 (00:00) 19.1 10.28 (16:20) 5 (13:30) 0 0 0 0 0
26-06-2019 26.7 (16:40) 10.9 (00:00) 18.8 12.5 (15:30) 5.83 (15:30) 0 0 0 0 0
25-06-2019 26.7 (19:10) 8.4 (00:00) 17.6 9.44 (14:20) 5 (13:10) 0 0 0 0 0
24-06-2019 25.1 (18:50) 8.7 (00:00) 16.9 10.56 (17:20) 5.28 (13:00) 0 0 0 0 0
23-06-2019 23.9 (15:10) 4.8 (00:00) 14.3 11.67 (11:30) 6.39 (13:40) 0 0 0 0 0
22-06-2019 24.4 (18:10) 2.7 (00:00) 13.5 9.17 (17:00) 5 (17:50) 0 0 0 0 0
21-06-2019 22.3 (19:00) 3.9 (00:00) 13.1 7.22 (18:00) 4.44 (19:40) 0 0 0 0 0
20-06-2019 21.9 (17:00) 6.3 (00:00) 14.1 11.39 (17:50) 5.83 (18:50) 0 0 0 0 0
19-06-2019 19.7 (17:00) 10.2 (00:00) 15 11.67 (15:30) 6.39 (14:40) 0 0 0 0 0
18-06-2019 20.9 (18:10) 3.6 (00:00) 12.2 15.28 (15:00) 7.78 (16:10) 0 0 0 0 0
17-06-2019 24.2 (16:30) 0.7 (00:00) 12.5 11.67 (13:20) 6.11 (12:50) 0 0 0 0 0
16-06-2019 23.2 (17:10) -0.7 (-00:0) 11.3 10.83 (17:40) 5.83 (16:50) 0 0 0 0 0

Gráficas

Temp. máximas Temp. mínimas Temp. medias Precipitaciones Rachas de viento máximas Velocidades máximas media en intervalos de 10 minutos

Datos horarios

Fecha y hora oficial Temperatura (ºC) Velocidad del viento (km/h) Dirección del viento Racha (km/h) Dirección de racha Precipitación (mm) Presión (hPa) Tendencia (hPa) Humedad (%)
2019-07-15 23:00:00 17.7 4 Sudeste 9 Sur 0 -- -- 47
2019-07-15 22:00:00 19.6 5 Sur 10 Nordeste 0 -- -- 45
2019-07-15 21:00:00 25 10 Nordeste 21 Norte 0 -- -- 30
2019-07-15 20:00:00 28.1 10 Norte 25 Norte 0 -- -- 30
2019-07-15 19:00:00 28.9 12 Norte 24 Norte 0 -- -- 28
2019-07-15 18:00:00 29.8 9 Norte 28 Norte 0 -- -- 28
2019-07-15 17:00:00 27.6 14 Norte 40 Norte 0 -- -- 32
2019-07-15 16:00:00 29 17 Norte 32 Norte 0 -- -- 29
2019-07-15 15:00:00 26.7 21 Norte 32 Norte 0 -- -- 31
2019-07-15 14:00:00 27.3 8 Sudeste 23 Sudoeste 0 -- -- 35
2019-07-15 13:00:00 26.8 12 Sur 27 Sur 0 -- -- 35
2019-07-15 12:00:00 25.8 12 Sur 30 Sur 0 -- -- 38
2019-07-15 11:00:00 24 15 Sur 26 Sudoeste 0 -- -- 41
2019-07-15 10:00:00 22.7 9 Sur 17 Sur 0 -- -- 44
2019-07-15 09:00:00 18.7 0 Calma 6 Sudeste 0 -- -- 63
2019-07-15 08:00:00 10 4 Sur 6 Sur 0 -- -- 93
2019-07-15 07:00:00 9.2 4 Sur 6 Sur 0 -- -- 92
2019-07-15 06:00:00 9 2 Sur 5 Nordeste 0 -- -- 93
2019-07-15 05:00:00 9.1 2 Sur 4 Sur 0 -- -- 87
2019-07-15 04:00:00 9.8 0 Calma 4 Sudoeste 0 -- -- 89
2019-07-15 03:00:00 10.9 0 Calma 4 Sudoeste 0 -- -- 81
2019-07-15 02:00:00 11.6 2 Sur 6 Sudeste 0 -- -- 80
2019-07-15 01:00:00 13.2 3 Sur 8 Sur 0 -- -- 73
2019-07-15 00:00:00 14.4 4 Sur 6 Sur 0 -- -- 70
2019-07-14 23:00:00 17 2 Nordeste 6 Norte 0 -- -- 62
2019-07-14 22:00:00 19.1 3 Sur 23 Norte 0 -- -- 56
2019-07-14 21:00:00 24 15 Norte 26 Norte 0 -- -- 40
2019-07-14 20:00:00 25.8 16 Norte 29 Norte 0 -- -- 39
2019-07-14 19:00:00 26.1 14 Nordeste 25 Norte 0 -- -- 38
2019-07-14 18:00:00 27.7 9 Sudoeste 16 Sur 0 -- -- 38
2019-07-14 17:00:00 26.6 4 Sur 27 Sur 0 -- -- 38
2019-07-14 16:00:00 25.9 12 Sur 26 Sudoeste 0 -- -- 42
2019-07-14 15:00:00 26.7 12 Sudoeste 24 Sur 0 -- -- 41
2019-07-14 14:00:00 26 12 Norte 30 Norte 0 -- -- 35
2019-07-14 13:00:00 24.7 18 Norte 31 Norte 0 -- -- 39
2019-07-14 12:00:00 24 10 Norte 22 Norte 0 -- -- 41
2019-07-14 11:00:00 22.2 9 Nordeste 21 Nordeste 0 -- -- 52
2019-07-14 10:00:00 20.2 10 Norte 23 Norte 0 -- -- 56
2019-07-14 09:00:00 16.7 11 Norte 21 Este 0 -- -- 69
2019-07-14 08:00:00 10.7 3 Norte 15 Nordeste 0 -- -- 87
2019-07-14 07:00:00 10.5 0 Calma 20 Nordeste 0 -- -- 86
2019-07-14 06:00:00 13.3 10 Nordeste 17 Nordeste 0 -- -- 76
2019-07-14 05:00:00 10.5 3 Norte 12 Nordeste 0 -- -- 87
2019-07-14 04:00:00 10.9 0 Calma 9 Sudeste 0 -- -- 86
2019-07-14 03:00:00 11.9 3 Nordeste 9 Nordeste 0 -- -- 84
2019-07-14 02:00:00 12.6 2 Sudeste 8 Nordeste 0 -- -- 81
2019-07-14 01:00:00 15.4 4 Nordeste 15 Oeste 0 -- -- 75
2019-07-14 00:00:00 17 6 Noroeste 19 Oeste 0 -- -- 71
2019-07-13 23:00:00 17.9 5 Norte 18 Noroeste 0 -- -- 69
2019-07-13 22:00:00 19.9 8 Oeste 13 Sudoeste 0 -- -- 48
2019-07-13 21:00:00 23.2 6 Sur 17 Sudoeste 0 -- -- 43
2019-07-13 20:00:00 24.9 10 Sudoeste 28 Sur 0 -- -- 39
2019-07-13 19:00:00 24.9 15 Sur 33 Sudoeste 0 -- -- 44
2019-07-13 18:00:00 26.4 14 Sur 36 Sur 0 -- -- 40
2019-07-13 17:00:00 26.6 17 Sudoeste 34 Sudoeste 0 -- -- 37
2019-07-13 16:00:00 26.1 17 Sur 33 Sudoeste 0 -- -- 40
2019-07-13 15:00:00 24.4 16 Sur 34 Sudoeste 0 -- -- 45
2019-07-13 14:00:00 25.4 15 Sur 27 Sudoeste 0 -- -- 42
2019-07-13 13:00:00 24.4 15 Sur 32 Sur 0 -- -- 47
2019-07-13 12:00:00 20.7 18 Sur 33 Sur 0 -- -- 58
2019-07-13 11:00:00 22.2 11 Sur 29 Sur 0 -- -- 54
2019-07-13 10:00:00 21.3 17 Sur 26 Sur 0 -- -- 54
2019-07-13 09:00:00 16.3 7 Sur 14 Sudeste 0.2 -- -- 87
2019-07-13 08:00:00 15.9 7 Sudoeste 11 Sudoeste 0 -- -- 90
2019-07-13 07:00:00 15.7 6 Sudoeste 15 Sudoeste 0.6 -- -- 87
2019-07-13 06:00:00 19 5 Sudoeste 15 Sur 0 -- -- 59
2019-07-13 05:00:00 15.9 0 Calma 8 Oeste 0 -- -- 61
2019-07-13 04:00:00 15.1 2 Sudoeste 5 Sudoeste 0 -- -- 61
2019-07-13 03:00:00 15.1 0 Calma 10 Sur 0 -- -- 59
2019-07-13 02:00:00 15.2 2 Este 9 Sur 0 -- -- 57
2019-07-13 01:00:00 15.8 6 Sur 9 Sur 0 -- -- 56
2019-07-13 00:00:00 18 4 Sur 10 Sudeste 0 -- -- 49
2019-07-12 23:00:00 20.3 7 Sur 13 Sudeste 0 -- -- 43
2019-07-12 22:00:00 22 6 Sur 10 Sur 0 -- -- 41
2019-07-12 21:00:00 24.9 4 Sudoeste 19 Sur 0 -- -- 44
2019-07-12 20:00:00 27.5 12 Sur 22 Sur 0 -- -- 35
2019-07-12 19:00:00 28.1 3 Sur 12 Sur 0 -- -- 37
2019-07-12 18:00:00 28.9 9 Sur 30 Sudoeste 0 -- -- 32
2019-07-12 17:00:00 29.6 15 Sur 36 Sur 0 -- -- 31
2019-07-12 16:00:00 30.7 21 Sur 36 Sur 0 -- -- 27
2019-07-12 15:00:00 30.9 21 Sur 34 Sur 0 -- -- 28
2019-07-12 14:00:00 30.9 12 Sur 33 Sur 0 -- -- 26
2019-07-12 13:00:00 29.1 18 Sur 33 Sudoeste 0 -- -- 30
2019-07-12 12:00:00 30.4 12 Sur 23 Sur 0 -- -- 27
2019-07-12 11:00:00 27.7 8 Sudoeste 18 Sur 0 -- -- 35
2019-07-12 10:00:00 25.5 2 Sur 5 Norte 0 -- -- 39
2019-07-12 09:00:00 18.4 0 Calma 7 Sudoeste 0 -- -- 57
2019-07-12 08:00:00 10.6 4 Sur 7 Sur 0 -- -- 76
2019-07-12 07:00:00 9.2 5 Sur 12 Sudeste 0 -- -- 77
2019-07-12 06:00:00 9.9 2 Nordeste 7 Sur 0 -- -- 74
2019-07-12 05:00:00 10.4 3 Sur 5 Sur 0 -- -- 71
2019-07-12 04:00:00 10.4 4 Sur 6 Sudeste 0 -- -- 72
2019-07-12 03:00:00 11.9 2 Sur 4 Sudeste 0 -- -- 65
2019-07-12 02:00:00 12.8 3 Sur 5 Sur 0 -- -- 62
2019-07-12 01:00:00 13.9 3 Sur 6 Sudoeste 0 -- -- 59
2019-07-12 00:00:00 15.7 2 Sur 7 Sudeste 0 -- -- 54
2019-07-11 23:00:00 17.7 4 Sur 14 Sur 0 -- -- 49
2019-07-11 22:00:00 21.9 9 Sur 15 Sudoeste 0 -- -- 43
2019-07-11 21:00:00 27.7 9 Sur 22 Sur 0 -- -- 32
2019-07-11 20:00:00 30.1 14 Sur 29 Sur 0 -- -- 29
2019-07-11 19:00:00 31.1 15 Sur 29 Sudoeste 0 -- -- 26
2019-07-11 18:00:00 31.6 14 Sur 31 Sur 0 -- -- 25
2019-07-11 17:00:00 31.4 15 Sur 27 Sur 0 -- -- 25
2019-07-11 16:00:00 30.8 15 Sur 28 Sur 0 -- -- 25
2019-07-11 15:00:00 30.3 15 Sudoeste 28 Sudoeste 0 -- -- 26
2019-07-11 14:00:00 29.5 13 Sur 28 Sudoeste 0 -- -- 27
2019-07-11 13:00:00 28.3 14 Sur 26 Sudoeste 0 -- -- 29
2019-07-11 12:00:00 27.1 14 Sur 26 Sur 0 -- -- 31
2019-07-11 11:00:00 26.3 12 Sur 21 Sudoeste 0 -- -- 32
2019-07-11 10:00:00 23.5 0 Calma 4 Sur 0 -- -- 40
2019-07-11 09:00:00 17.5 0 Calma 5 Sudeste 0 -- -- 57
2019-07-11 08:00:00 7 0 Calma 6 Sur 0 -- -- 89
2019-07-11 07:00:00 6 2 Sur 6 Sudoeste 0 -- -- 89
2019-07-11 06:00:00 6.7 3 Sur 8 Sudoeste 0 -- -- 86
2019-07-11 05:00:00 7.4 3 Sur 10 Sur 0 -- -- 85
2019-07-11 04:00:00 8.1 4 Sur 6 Sur 0 -- -- 80
2019-07-11 03:00:00 8.9 2 Sur 6 Sudoeste 0 -- -- 78
2019-07-11 02:00:00 10.5 0 Calma 5 Sur 0 -- -- 72
2019-07-11 01:00:00 11.2 2 Sur 5 Sudeste 0 -- -- 70
2019-07-11 00:00:00 13.2 4 Sur 11 Sur 0 -- -- 64
2019-07-10 23:00:00 14.8 6 Sur 10 Sudoeste 0 -- -- 58
2019-07-10 22:00:00 18.7 4 Sur 11 Sur 0 -- -- 48
2019-07-10 21:00:00 24.9 5 Sur 22 Sur 0 -- -- 34
2019-07-10 20:00:00 26.7 12 Sur 26 Sudoeste 0 -- -- 31
2019-07-10 19:00:00 27.2 12 Sudoeste 23 Sudoeste 0 -- -- 30
2019-07-10 18:00:00 26.9 13 Sudoeste 23 Sudoeste 0 -- -- 31
2019-07-10 17:00:00 26 14 Sudoeste 26 Sudoeste 0 -- -- 33
2019-07-10 16:00:00 26 10 Sur 22 Sudoeste 0 -- -- 33
2019-07-10 15:00:00 25.7 12 Sur 25 Sur 0 -- -- 34
2019-07-10 14:00:00 25.1 10 Sur 24 Sur 0 -- -- 36
2019-07-10 13:00:00 23.9 9 Sudoeste 26 Sur 0 -- -- 38
2019-07-10 12:00:00 23.9 5 Norte 17 Norte 0 -- -- 30
2019-07-10 11:00:00 23.3 3 Nordeste 9 Norte 0 -- -- 34
2019-07-10 10:00:00 18.4 3 Nordeste 6 Nordeste 0 -- -- 54
2019-07-10 09:00:00 14.7 0 Calma 8 Sudeste 0 -- -- 67
2019-07-10 08:00:00 6 3 Sur 5 Sudeste 0 -- -- 98
2019-07-10 07:00:00 5.2 0 Calma 5 Sur 0 -- -- 96
2019-07-10 06:00:00 5.5 0 Calma 4 Sudeste 0 -- -- 95
2019-07-10 05:00:00 5.6 0 Calma 3 Sudoeste 0 -- -- 93
2019-07-10 04:00:00 6.7 0 Calma 5 Sur 0 -- -- 90
2019-07-10 03:00:00 7.2 0 Calma 4 Sur 0 -- -- 92
2019-07-10 02:00:00 8 2 Sur 5 Sur 0 -- -- 88
2019-07-10 01:00:00 9.3 3 Sur 4 Sudeste 0 -- -- 82
2019-07-10 00:00:00 11.1 2 Sudeste 6 Sudeste 0 -- -- 75
2019-07-09 23:00:00 12.3 0 Calma 6 Sudeste 0 -- -- 69
2019-07-09 22:00:00 16.1 2 Norte 24 Norte 0 -- -- 59
2019-07-09 21:00:00 19.7 18 Norte 30 Nordeste 0 -- -- 51
2019-07-09 20:00:00 21.6 17 Norte 31 Norte 0 -- -- 47
2019-07-09 19:00:00 21.9 17 Norte 33 Norte 0 -- -- 49
2019-07-09 18:00:00 22.1 22 Norte 32 Norte 0 -- -- 46
2019-07-09 17:00:00 20.8 4 Este 12 Norte 0 -- -- 47
2019-07-09 16:00:00 21.1 8 Nordeste 21 Norte 0 -- -- 47
2019-07-09 15:00:00 19.9 12 Norte 23 Norte 0 -- -- 49
2019-07-09 14:00:00 20.2 10 Nordeste 29 Nordeste 0 -- -- 43
2019-07-09 13:00:00 21.6 5 Norte 21 Nordeste 0 -- -- 40
2019-07-09 12:00:00 21.5 5 Oeste 12 Norte 0 -- -- 39
2019-07-09 11:00:00 19.7 4 Nordeste 12 Nordeste 0 -- -- 44
2019-07-09 10:00:00 17.2 4 Nordeste 9 Nordeste 0 -- -- 50
2019-07-09 09:00:00 13 0 Calma 4 Nordeste 0 -- -- 64
2019-07-09 08:00:00 4.1 0 Calma 6 Sudoeste 0 -- -- 96
2019-07-09 07:00:00 3.7 3 Sudoeste 13 Sudoeste 0 -- -- 92
2019-07-09 06:00:00 3.4 3 Sur 6 Sur 0 -- -- 93
2019-07-09 05:00:00 4 0 Calma 8 Sur 0 -- -- 90
2019-07-09 04:00:00 5.1 4 Sudeste 6 Sudeste 0 -- -- 88
2019-07-09 03:00:00 6 2 Sur 5 Sudeste 0 -- -- 86
2019-07-09 02:00:00 7.8 4 Sudeste 9 Sudeste 0 -- -- 79
2019-07-09 01:00:00 9.9 4 Sudeste 12 Sudeste 0 -- -- 73
2019-07-09 00:00:00 11.3 3 Norte 20 Nordeste 0 -- -- 69
2019-07-08 23:00:00 13.3 10 Norte 21 Norte 0 -- -- 64
2019-07-08 22:00:00 14.6 6 Noroeste 28 Norte 0 -- -- 60
2019-07-08 21:00:00 17.1 7 Oeste 22 Oeste 0 -- -- 49
2019-07-08 20:00:00 21.1 9 Sudoeste 23 Sudoeste 0 -- -- 41
2019-07-08 19:00:00 20.5 5 Sudoeste 23 Oeste 0 -- -- 41
2019-07-08 18:00:00 19.7 9 Norte 22 Oeste 0 -- -- 43
2019-07-08 17:00:00 19.3 15 Oeste 33 Sudoeste 0 -- -- 42
2019-07-08 16:00:00 22.7 18 Sur 39 Sudoeste 0 -- -- 30
2019-07-08 15:00:00 22 14 Sur 32 Sudoeste 0 -- -- 38
2019-07-08 14:00:00 21 16 Sur 31 Sur 0 -- -- 44
2019-07-08 13:00:00 20.3 14 Sur 31 Sur 0 -- -- 45
2019-07-08 12:00:00 19.4 18 Sur 30 Sur 0 -- -- 53
2019-07-08 11:00:00 19.2 15 Sur 26 Sur 0 -- -- 53
2019-07-08 10:00:00 18.2 13 Sur 23 Sur 0 -- -- 54
2019-07-08 09:00:00 14.7 0 Calma 6 Sudeste 0 -- -- 64
2019-07-08 08:00:00 4.6 3 Sur 6 Sur 0 -- -- 90
2019-07-08 07:00:00 4.1 0 Calma 6 Sudoeste 0 -- -- 92
2019-07-08 06:00:00 5.1 3 Sur 8 Sudoeste 0 -- -- 87
2019-07-08 05:00:00 5.3 5 Sur 8 Sudoeste 0 -- -- 87
2019-07-08 04:00:00 6.6 2 Sur 5 Sudoeste 0 -- -- 81
2019-07-08 03:00:00 7.9 3 Sur 6 Sur 0 -- -- 76
2019-07-08 02:00:00 8.6 3 Sur 6 Sur 0 -- -- 72
2019-07-08 01:00:00 9.9 0 Calma 9 Sur 0 -- -- 69
2019-07-08 00:00:00 11.6 8 Sudoeste 12 Sudoeste 0 -- -- 63
2019-07-07 23:00:00 13.5 2 Sudeste 12 Sur 0 -- -- 57
2019-07-07 22:00:00 16.5 7 Sudoeste 10 Sudoeste 0 -- -- 52
2019-07-07 21:00:00 21.9 4 Sudoeste 11 Sur 0 -- -- 37
2019-07-07 20:00:00 24.8 5 Sudoeste 19 Sudoeste 0 -- -- 27
2019-07-07 19:00:00 26.7 8 Sudoeste 23 Sur 0 -- -- 26
2019-07-07 18:00:00 26.3 9 Sur 24 Sudoeste 0 -- -- 22
2019-07-07 17:00:00 25.7 13 Sur 26 Sudoeste 0 -- -- 19
2019-07-07 16:00:00 25 13 Sur 29 Sur 0 -- -- 23
2019-07-07 15:00:00 24.9 17 Sur 33 Sur 0 -- -- 28
2019-07-07 14:00:00 23.4 18 Sur 35 Sudoeste 0 -- -- 28
2019-07-07 13:00:00 22.4 19 Sur 36 Sudoeste 0 -- -- 35
2019-07-07 12:00:00 21.6 20 Sur 35 Sur 0 -- -- 32
2019-07-07 11:00:00 21.3 10 Sur 20 Sur 0 -- -- 35
2019-07-07 10:00:00 18 3 Nordeste 7 Nordeste 0 -- -- 54
2019-07-07 09:00:00 10.2 2 Sur 5 Sudoeste 0 -- -- 76
2019-07-07 08:00:00 5.8 2 Sudeste 6 Sudoeste 0 -- -- 88
2019-07-07 07:00:00 4.3 0 Calma 5 Sudoeste 0 -- -- 87
2019-07-07 06:00:00 4.6 0 Calma 7 Sudoeste 0 -- -- 84
2019-07-07 05:00:00 5.9 0 Calma 8 Sudoeste 0 -- -- 80
2019-07-07 04:00:00 6.8 3 Sur 6 Sudoeste 0 -- -- 77
2019-07-07 03:00:00 7.6 3 Sur 7 Sur 0 -- -- 73
2019-07-07 02:00:00 8.4 0 Calma 6 Sudeste 0 -- -- 68
2019-07-07 01:00:00 10.2 5 Sur 9 Sudoeste 0 -- -- 62
2019-07-07 00:00:00 11.6 2 Norte 9 Sudoeste 0 -- -- 56
2019-07-06 23:00:00 14 2 Nordeste 10 Oeste 0 -- -- 50
2019-07-06 22:00:00 17.2 4 Sur 17 Oeste 0 -- -- 42
2019-07-06 21:00:00 22.5 10 Sudoeste 24 Sudoeste 0 -- -- 35
2019-07-06 20:00:00 24 14 Sur 27 Sur 0 -- -- 34
2019-07-06 19:00:00 24.9 16 Sudoeste 33 Sur 0 -- -- 31
2019-07-06 18:00:00 25 16 Sur 33 Sur 0 -- -- 31
2019-07-06 17:00:00 25.1 17 Sur 34 Sudoeste 0 -- -- 31
2019-07-06 16:00:00 24.8 18 Sur 37 Sur 0 -- -- 32
2019-07-06 15:00:00 23.7 18 Sur 35 Sur 0 -- -- 33
2019-07-06 14:00:00 23.3 15 Sur 33 Sur 0 -- -- 33
2019-07-06 13:00:00 22.2 17 Sur 31 Sudoeste 0 -- -- 39
2019-07-06 12:00:00 21.9 14 Sur 29 Sudoeste 0 -- -- 39
2019-07-06 11:00:00 21.7 12 Sur 21 Sur 0 -- -- 41
2019-07-06 10:00:00 20.9 9 Sur 16 Sudoeste 0 -- -- 44
2019-07-06 09:00:00 15.4 0 Calma 3 Sudeste 0 -- -- 64
2019-07-06 08:00:00 5.6 0 Calma 4 Sur 0 -- -- 96
2019-07-06 07:00:00 4.6 0 Calma 6 Sur 0 -- -- 93
2019-07-06 06:00:00 5.2 2 Sur 5 Sudoeste 0 -- -- 90
2019-07-06 05:00:00 5.6 2 Sur 6 Sur 0 -- -- 88
2019-07-06 04:00:00 6 0 Calma 5 Sur 0 -- -- 88
2019-07-06 03:00:00 6.7 3 Sur 6 Sur 0 -- -- 85
2019-07-06 02:00:00 7.6 5 Sur 8 Sudoeste 0 -- -- 81
2019-07-06 01:00:00 8.8 0 Calma 6 Sur 0 -- -- 75
2019-07-06 00:00:00 10.8 0 Calma 9 Sudoeste 0 -- -- 68
2019-07-05 23:00:00 11.9 4 Sur 9 Sur 0 -- -- 64
2019-07-05 22:00:00 15.9 6 Sur 9 Sudoeste 0 -- -- 55
2019-07-05 21:00:00 22.6 5 Sudoeste 17 Sur 0 -- -- 38
2019-07-05 20:00:00 24 11 Sudoeste 30 Sudoeste 0 -- -- 34
2019-07-05 19:00:00 25 14 Sur 34 Sur 0 -- -- 32
2019-07-05 18:00:00 25.1 18 Sur 33 Sudoeste 0 -- -- 31
2019-07-05 17:00:00 24.8 16 Sur 37 Sudoeste 0 -- -- 31
2019-07-05 16:00:00 24.2 17 Sur 37 Sur 0 -- -- 32
2019-07-05 15:00:00 23.4 19 Sur 35 Sur 0 -- -- 33
2019-07-05 14:00:00 22.8 20 Sur 35 Sudoeste 0 -- -- 31
2019-07-05 13:00:00 22.3 14 Sur 31 Sur 0 -- -- 33
2019-07-05 12:00:00 20.8 15 Sur 27 Sur 0 -- -- 42
2019-07-05 11:00:00 19.5 14 Sur 24 Sur 0 -- -- 50
2019-07-05 10:00:00 18.3 12 Sur 20 Sudoeste 0 -- -- 54
2019-07-05 09:00:00 13.9 2 Nordeste 4 Nordeste 0 -- -- 75
2019-07-05 08:00:00 6.3 0 Calma 3 Sudoeste 0 -- -- 99
2019-07-05 07:00:00 5.2 0 Calma 4 Sudoeste 0 -- -- 99
2019-07-05 06:00:00 6.1 0 Calma 6 Sudoeste 0 -- -- 98
2019-07-05 05:00:00 6.7 2 Sur 6 Sudoeste 0 -- -- 97
2019-07-05 04:00:00 7.2 3 Sur 6 Sudoeste 0 -- -- 96
2019-07-05 03:00:00 8.6 0 Calma 6 Sudeste 0 -- -- 93
2019-07-05 02:00:00 9.3 0 Calma 6 Sur 0 -- -- 92
2019-07-05 01:00:00 10.1 0 Calma 6 Sudeste 0 -- -- 89
2019-07-05 00:00:00 11.5 0 Calma 10 Sur 0 -- -- 84
2019-07-04 23:00:00 12.6 4 Sur 10 Sudoeste 0 -- -- 83
2019-07-04 22:00:00 15.7 9 Sudoeste 13 Sudoeste 0 -- -- 73
2019-07-04 21:00:00 18.2 4 Sur 10 Sudeste 0 -- -- 70
2019-07-04 20:00:00 20.6 4 Sur 13 Sudoeste 0 -- -- 58
2019-07-04 19:00:00 22.6 4 Sur 22 Sur 0 -- -- 49
2019-07-04 18:00:00 23.1 9 Sudoeste 26 Sudoeste 0 -- -- 47
2019-07-04 17:00:00 23.8 12 Sur 28 Sudoeste 0 -- -- 48
2019-07-04 16:00:00 24.9 14 Sudoeste 28 Sudoeste 0 -- -- 46
2019-07-04 15:00:00 23.9 14 Sudoeste 26 Sudoeste 0 -- -- 52
2019-07-04 14:00:00 22 12 Sudoeste 23 Sudoeste 0 -- -- 55
2019-07-04 13:00:00 20.8 10 Sur 20 Sur 0 -- -- 64
2019-07-04 12:00:00 20 4 Sur 8 Sudeste 0 -- -- 68
2019-07-04 11:00:00 17.9 0 Calma 6 Norte 0 -- -- 76
2019-07-04 10:00:00 14.8 0 Calma 9 Nordeste 2.6 -- -- 88
2019-07-04 09:00:00 12.2 3 Nordeste 9 Sur 1.2 -- -- 92
2019-07-04 08:00:00 12.2 0 Calma 9 Sur 0 -- -- 81
2019-07-04 07:00:00 9.7 3 Nordeste 8 Este 0 -- -- 87
2019-07-04 06:00:00 8.9 4 Sur 6 Sudoeste 0 -- -- 88
2019-07-04 05:00:00 9 0 Calma 11 Sudoeste 0 -- -- 87
2019-07-04 04:00:00 9.1 0 Calma 4 Sur 0 -- -- 84
2019-07-04 03:00:00 10.5 0 Calma 8 Sudoeste 0 -- -- 80
2019-07-04 02:00:00 11.4 2 Sur 5 Sur 0 -- -- 76
2019-07-04 01:00:00 12.5 2 Sur 5 Sudoeste 0 -- -- 72
2019-07-04 00:00:00 14.1 0 Calma 10 Sudoeste 0 -- -- 65
2019-07-03 23:00:00 15.1 4 Sur 10 Sur 0 -- -- 62
2019-07-03 22:00:00 19.2 8 Sudoeste 13 Sudoeste 0 -- -- 52
2019-07-03 21:00:00 23.7 4 Sur 17 Sudoeste 0 -- -- 40
2019-07-03 20:00:00 26.7 9 Sudoeste 26 Sudoeste 0 -- -- 32
2019-07-03 19:00:00 27.6 14 Sudoeste 29 Sudoeste 0 -- -- 30
2019-07-03 18:00:00 28.2 14 Sur 32 Sur 0 -- -- 29
2019-07-03 17:00:00 27.7 14 Sur 35 Sudeste 0 -- -- 30
2019-07-03 16:00:00 27.3 18 Sudoeste 35 Sur 0 -- -- 33
2019-07-03 15:00:00 27.1 15 Sudoeste 36 Sudoeste 0 -- -- 35
2019-07-03 14:00:00 26 15 Sudoeste 28 Sudoeste 0 -- -- 38
2019-07-03 13:00:00 25.2 10 Sudoeste 23 Sudoeste 0 -- -- 42
2019-07-03 12:00:00 23.7 14 Sur 22 Sur 0 -- -- 47
2019-07-03 11:00:00 23.7 8 Sudoeste 17 Nordeste 0 -- -- 46
2019-07-03 10:00:00 20.6 11 Norte 19 Norte 0 -- -- 55
2019-07-03 09:00:00 17.5 0 Calma 3 Nordeste 0 -- -- 54
2019-07-03 08:00:00 9.5 0 Calma 5 Sur 0 -- -- 84
2019-07-03 07:00:00 8.4 0 Calma 5 Sudeste 0 -- -- 83
2019-07-03 06:00:00 9.5 0 Calma 5 Sudoeste 0 -- -- 78
2019-07-03 05:00:00 10.1 0 Calma 5 Sudeste 0 -- -- 75
2019-07-03 04:00:00 10.8 0 Calma 12 Sudeste 0 -- -- 73
2019-07-03 03:00:00 10.3 2 Sur 5 Sudeste 0 -- -- 73
2019-07-03 02:00:00 11.1 3 Sur 6 Sudoeste 0 -- -- 70
2019-07-03 01:00:00 12.3 3 Sur 7 Sur 0 -- -- 66
2019-07-03 00:00:00 14.2 2 Sur 9 Sudeste 0 -- -- 59
2019-07-02 23:00:00 17.3 5 Sudeste 12 Sudoeste 0 -- -- 49
2019-07-02 22:00:00 21.4 10 Sur 22 Sur 0 -- -- 39
2019-07-02 21:00:00 24.6 10 Sur 24 Sur 0 -- -- 35
2019-07-02 20:00:00 26.7 14 Sur 29 Sudoeste 0 -- -- 31
2019-07-02 19:00:00 27.6 15 Sur 33 Sur 0 -- -- 26
2019-07-02 18:00:00 28 14 Sur 31 Sur 0 -- -- 23
2019-07-02 17:00:00 27.9 13 Sur 31 Sur 0 -- -- 23
2019-07-02 16:00:00 27.6 13 Sudoeste 33 Sudoeste 0 -- -- 24
2019-07-02 15:00:00 27.3 17 Sur 32 Sudoeste 0 -- -- 24
2019-07-02 14:00:00 26.7 12 Sur 30 Sudoeste 0 -- -- 25
2019-07-02 13:00:00 25.7 15 Sur 27 Sudoeste 0 -- -- 27
2019-07-02 12:00:00 24.6 14 Sur 28 Sur 0 -- -- 32
2019-07-02 11:00:00 23.5 13 Sur 22 Sur 0 -- -- 40
2019-07-02 10:00:00 21.3 3 Norte 6 Nordeste 0 -- -- 47
2019-07-02 09:00:00 15.5 2 Nordeste 4 Nordeste 0 -- -- 61
2019-07-02 08:00:00 7 4 Sur 6 Sur 0 -- -- 90
2019-07-02 07:00:00 6.2 0 Calma 4 Sur 0 -- -- 88
2019-07-02 06:00:00 7.4 3 Sur 5 Sudoeste 0 -- -- 85
2019-07-02 05:00:00 7.5 6 Sur 9 Sur 0 -- -- 82
2019-07-02 04:00:00 8.6 0 Calma 6 Sudeste 0 -- -- 76
2019-07-02 03:00:00 8.7 5 Sur 7 Sudoeste 0 -- -- 76
2019-07-02 02:00:00 10.2 3 Sur 7 Sur 0 -- -- 71
2019-07-02 01:00:00 11.7 0 Calma 10 Sur 0 -- -- 66
2019-07-02 00:00:00 13.6 2 Sudeste 8 Sudeste 0 -- -- 59
2019-07-01 23:00:00 15.5 4 Sur 9 Sudeste 0 -- -- 55
2019-07-01 22:00:00 18.8 3 Sur 13 Sudoeste 0 -- -- 49
2019-07-01 21:00:00 24.7 6 Sudoeste 24 Sur 0 -- -- 34
2019-07-01 20:00:00 26.3 10 Sudoeste 17 Sudoeste 0 -- -- 29
2019-07-01 19:00:00 25.1 9 Sur 26 Sur 0 -- -- 31
2019-07-01 18:00:00 27.7 15 Sur 29 Sudoeste 0 -- -- 27
2019-07-01 17:00:00 27.5 17 Sur 34 Sudoeste 0 -- -- 27
2019-07-01 16:00:00 27 21 Sur 33 Sur 0 -- -- 27
2019-07-01 15:00:00 26.7 18 Sur 28 Sudoeste 0 -- -- 28
2019-07-01 14:00:00 26 16 Sur 32 Sudoeste 0 -- -- 29
2019-07-01 13:00:00 25.2 16 Sur 25 Sudoeste 0 -- -- 35
2019-07-01 12:00:00 24.4 17 Sur 25 Sudoeste 0 -- -- 42
2019-07-01 11:00:00 25 12 Sur 22 Sur 0 -- -- 41
2019-07-01 10:00:00 23.3 0 Calma 4 Nordeste 0 -- -- 50
2019-07-01 09:00:00 18.6 0 Calma 5 Sudeste 0 -- -- 63
2019-07-01 08:00:00 10.9 0 Calma 5 Sudoeste 0 -- -- 87
2019-07-01 07:00:00 9.8 3 Sur 6 Sudeste 0 -- -- 87
2019-07-01 06:00:00 11 5 Sur 8 Sudeste 0 -- -- 82
2019-07-01 05:00:00 11.6 3 Sur 9 Sudoeste 0 -- -- 77
2019-07-01 04:00:00 11.9 3 Sur 11 Sur 0 -- -- 77
2019-07-01 03:00:00 11.6 4 Sur 6 Sur 0 -- -- 75
2019-07-01 02:00:00 12.9 4 Sur 8 Sur 0 -- -- 72
2019-07-01 01:00:00 14.4 2 Sur 10 Sudoeste 0 -- -- 67
2019-07-01 00:00:00 14.5 0 Calma 8 Sudeste 0 -- -- 66
2019-06-30 23:00:00 16.9 3 Sur 11 Sudoeste 0 -- -- 57
2019-06-30 22:00:00 21.2 10 Sudoeste 12 Sur 0 -- -- 47
2019-06-30 21:00:00 26.3 5 Sudoeste 14 Sudoeste 0 -- -- 38
2019-06-30 20:00:00 28.8 8 Sudoeste 19 Sudoeste 0 -- -- 33
2019-06-30 19:00:00 29.4 13 Sur 25 Sudoeste 0 -- -- 30
2019-06-30 18:00:00 29.7 12 Sudoeste 33 Sur 0 -- -- 28
2019-06-30 17:00:00 29.6 16 Sur 34 Sur 0 -- -- 25
2019-06-30 16:00:00 28.9 20 Sur 35 Sudoeste 0 -- -- 28
2019-06-30 15:00:00 28.2 21 Sur 37 Sur 0 -- -- 32
2019-06-30 14:00:00 28.3 19 Sur 32 Sur 0 -- -- 30
2019-06-30 13:00:00 27.5 18 Sur 31 Sudoeste 0 -- -- 35
2019-06-30 12:00:00 26.9 19 Sur 33 Sur 0 -- -- 35
2019-06-30 11:00:00 26 15 Sur 24 Sur 0 -- -- 41
2019-06-30 10:00:00 23 15 Sur 27 Sur 0 -- -- 48
2019-06-30 09:00:00 22.1 13 Sur 22 Sur 0 -- -- 41
2019-06-30 08:00:00 10.4 0 Calma 5 Norte 0 -- -- 75
2019-06-30 07:00:00 9.3 0 Calma 2 Sudeste 0 -- -- 77
2019-06-30 06:00:00 10.2 2 Sudoeste 5 Sur 0 -- -- 74
2019-06-30 05:00:00 10.5 0 Calma 4 Sur 0 -- -- 71
2019-06-30 04:00:00 11.8 3 Sur 6 Sudeste 0 -- -- 66
2019-06-30 03:00:00 12.2 3 Sur 5 Sudoeste 0 -- -- 66
2019-06-30 02:00:00 13.7 0 Calma 7 Sudeste 0 -- -- 63
2019-06-30 01:00:00 14.9 2 Sur 5 Sudeste 0 -- -- 62
2019-06-30 00:00:00 16.3 2 Sudeste 6 Sudeste 0 -- -- 57
2019-06-29 23:00:00 17.9 4 Sur 9 Sur 0 -- -- 53
2019-06-29 22:00:00 21.1 3 Sur 13 Sur 0 -- -- 50
2019-06-29 21:00:00 26.2 9 Sudoeste 13 Sur 0 -- -- 36
2019-06-29 20:00:00 29.6 3 Sudoeste 20 Sudoeste 0 -- -- 29
2019-06-29 19:00:00 33.1 6 Sudoeste 23 Sudoeste 0 -- -- 20
2019-06-29 18:00:00 33 12 Sudoeste 26 Sudoeste 0 -- -- 21
2019-06-29 17:00:00 32.4 12 Sudoeste 23 Sudoeste 0 -- -- 23
2019-06-29 16:00:00 32.5 13 Sur 27 Sudoeste 0 -- -- 24
2019-06-29 15:00:00 31.7 14 Sur 27 Sudoeste 0 -- -- 22
2019-06-29 14:00:00 30.8 14 Sudoeste 25 Sur 0 -- -- 26
2019-06-29 13:00:00 29.5 14 Sur 23 Sudoeste 0 -- -- 29
2019-06-29 12:00:00 29.5 13 Sur 20 Sudoeste 0 -- -- 29
2019-06-29 11:00:00 28.4 2 Este 8 Norte 0 -- -- 30
2019-06-29 10:00:00 23.3 0 Calma 6 Nordeste 0 -- -- 36
2019-06-29 09:00:00 18.9 0 Calma 9 Sur 0 -- -- 49
2019-06-29 08:00:00 11 2 Sur 5 Sur 0 -- -- 73
2019-06-29 07:00:00 11.2 4 Sur 8 Sudoeste 0 -- -- 68
2019-06-29 06:00:00 11.3 0 Calma 8 Sudoeste 0 -- -- 68
2019-06-29 05:00:00 13.3 0 Calma 9 Sudoeste 0 -- -- 61
2019-06-29 04:00:00 14.6 2 Sudoeste 9 Sudeste 0 -- -- 57
2019-06-29 03:00:00 15.7 4 Sudoeste 10 Sudoeste 0 -- -- 54
2019-06-29 02:00:00 17.4 5 Sur 11 Sur 0 -- -- 47
2019-06-29 01:00:00 21.6 7 Sudoeste 22 Sur 0 -- -- 36
2019-06-29 00:00:00 27.8 8 Sudeste 29 Sudeste 0 -- -- 22
2019-06-28 23:00:00 27.4 7 Sudeste 27 Sudeste 0 -- -- 22
2019-06-28 22:00:00 28.5 7 Este 26 Sudeste 0 -- -- 21
2019-06-28 21:00:00 31.7 14 Sur 33 Sudeste 0 -- -- 17
2019-06-28 20:00:00 33.6 14 Sur 41 Sudeste 0 -- -- 16
2019-06-28 19:00:00 34.1 14 Sur 42 Sudoeste 0 -- -- 19
2019-06-28 18:00:00 33.6 17 Sudoeste 36 Sudoeste 0 -- -- 20
2019-06-28 17:00:00 33.1 16 Sur 44 Sudoeste 0 -- -- 22
2019-06-28 16:00:00 31.9 18 Sudoeste 43 Sudoeste 0 -- -- 23
2019-06-28 15:00:00 31.2 17 Sudoeste 41 Sudoeste 0 -- -- 23
2019-06-28 14:00:00 30.2 17 Sudoeste 33 Sur 0 -- -- 24
2019-06-28 13:00:00 30.2 12 Sur 23 Sur 0 -- -- 23
2019-06-28 12:00:00 28.2 13 Sur 22 Sur 0 -- -- 36
2019-06-28 11:00:00 27.5 3 Este 8 Nordeste 0 -- -- 40
2019-06-28 10:00:00 23.3 3 Norte 6 Nordeste 0 -- -- 50
2019-06-28 09:00:00 18.7 0 Calma 4 Norte 0 -- -- 66
2019-06-28 08:00:00 11.3 0 Calma 4 Este 0 -- -- 94
2019-06-28 07:00:00 10.1 2 Sudoeste 5 Sur 0 -- -- 94
2019-06-28 06:00:00 10.9 0 Calma 5 Sudeste 0 -- -- 92
2019-06-28 05:00:00 11.6 0 Calma 4 Sudeste 0 -- -- 91
2019-06-28 04:00:00 12.3 0 Calma 5 Sudoeste 0 -- -- 88
2019-06-28 03:00:00 13.2 0 Calma 6 Sur 0 -- -- 84
2019-06-28 02:00:00 13.3 2 Sur 6 Sudeste 0 -- -- 83
2019-06-28 01:00:00 14.5 3 Sur 10 Sur 0 -- -- 79
2019-06-28 00:00:00 15.3 0 Calma 10 Sur 0 -- -- 73
2019-06-27 23:00:00 16.3 5 Sur 11 Sudoeste 0 -- -- 73
2019-06-27 22:00:00 20.6 9 Sudoeste 12 Sudoeste 0 -- -- 59
2019-06-27 21:00:00 26.1 5 Sudoeste 17 Sudeste 0 -- -- 43
2019-06-27 20:00:00 27.9 9 Sur 25 Sur 0 -- -- 39
2019-06-27 19:00:00 28.8 10 Sur 27 Sur 0 -- -- 37
2019-06-27 18:00:00 28.8 14 Sur 35 Sudoeste 0 -- -- 36
2019-06-27 17:00:00 28.3 17 Sur 37 Sudoeste 0 -- -- 37
2019-06-27 16:00:00 27.8 15 Sur 29 Sudoeste 0 -- -- 39
2019-06-27 15:00:00 26.8 17 Sudoeste 36 Sudoeste 0 -- -- 39
2019-06-27 14:00:00 26.2 17 Sur 34 Sur 0 -- -- 40
2019-06-27 13:00:00 26 16 Sudoeste 35 Sudoeste 0 -- -- 38
2019-06-27 12:00:00 24.9 13 Sur 26 Sudoeste 0 -- -- 41
2019-06-27 11:00:00 24 8 Sur 16 Sudoeste 0 -- -- 47
2019-06-27 10:00:00 23 5 Sudeste 18 Sudeste 0 -- -- 50
2019-06-27 09:00:00 19.5 2 Nordeste 7 Oeste 0 -- -- 68
2019-06-27 08:00:00 11.2 2 Sur 6 Sudeste 0 -- -- 95
2019-06-27 07:00:00 9.4 0 Calma 5 Sudeste 0 -- -- 94
2019-06-27 06:00:00 10.2 0 Calma 6 Sudoeste 0 -- -- 93
2019-06-27 05:00:00 11 2 Sur 8 Sudoeste 0 -- -- 89
2019-06-27 04:00:00 12.7 7 Sur 11 Sudoeste 0 -- -- 84
2019-06-27 03:00:00 11.9 0 Calma 5 Nordeste 0 -- -- 87
2019-06-27 02:00:00 13 0 Calma 12 Sudoeste 0 -- -- 82
2019-06-27 01:00:00 14.9 9 Sur 14 Sudoeste 0 -- -- 76
2019-06-27 00:00:00 14.7 3 Sur 8 Sur 0 -- -- 75
2019-06-26 23:00:00 16.4 4 Sur 10 Sudoeste 0 -- -- 69
2019-06-26 22:00:00 18.5 5 Sur 13 Oeste 0 -- -- 63
2019-06-26 21:00:00 24.2 7 Sudoeste 18 Sudoeste 0 -- -- 44
2019-06-26 20:00:00 25.8 10 Sur 23 Sur 0 -- -- 41
2019-06-26 19:00:00 26.3 11 Sur 28 Sur 0 -- -- 40
2019-06-26 18:00:00 26.6 12 Sudoeste 33 Sur 0 -- -- 41
2019-06-26 17:00:00 25.3 16 Sudoeste 39 Sudoeste 0 -- -- 43
2019-06-26 16:00:00 25.6 18 Sur 45 Sur 0 -- -- 43
2019-06-26 15:00:00 25.3 17 Sur 39 Sur 0 -- -- 44
2019-06-26 14:00:00 23.4 19 Sur 36 Sur 0 -- -- 47
2019-06-26 13:00:00 22.4 18 Sur 35 Sudoeste 0 -- -- 48
2019-06-26 12:00:00 22 14 Sur 31 Sudoeste 0 -- -- 47
2019-06-26 11:00:00 20.9 15 Sur 29 Sudoeste 0 -- -- 48
2019-06-26 10:00:00 19.7 15 Sur 26 Sur 0 -- -- 56
2019-06-26 09:00:00 19.1 14 Sur 22 Sur 0 -- -- 57
2019-06-26 08:00:00 17.3 5 Sur 24 Sudoeste 0 -- -- 64
2019-06-26 07:00:00 15 5 Sur 13 Sudoeste 0 -- -- 71
2019-06-26 06:00:00 15.8 6 Sur 17 Sur 0 -- -- 68
2019-06-26 05:00:00 15.9 5 Sur 17 Sur 0 -- -- 67
2019-06-26 04:00:00 16 6 Sur 17 Sur 0 -- -- 68
2019-06-26 03:00:00 11.3 4 Sur 13 Sur 0 -- -- 84
2019-06-26 02:00:00 11.4 0 Calma 9 Sur 0 -- -- 81
2019-06-26 01:00:00 12.2 2 Sudeste 8 Sur 0 -- -- 78
2019-06-26 00:00:00 13.4 3 Noroeste 10 Sudoeste 0 -- -- 73
2019-06-25 23:00:00 15.1 4 Sur 9 Sur 0 -- -- 67
2019-06-25 22:00:00 17.9 4 Sur 10 Oeste 0 -- -- 59
2019-06-25 21:00:00 25 4 Sur 27 Sudoeste 0 -- -- 38
2019-06-25 20:00:00 26 10 Sudoeste 29 Sudoeste 0 -- -- 35
2019-06-25 19:00:00 26.4 13 Sudoeste 30 Sudoeste 0 -- -- 33
2019-06-25 18:00:00 26.4 12 Sur 28 Sudoeste 0 -- -- 36
2019-06-25 17:00:00 25.4 11 Sudoeste 27 Sudoeste 0 -- -- 41
2019-06-25 16:00:00 24.2 6 Sur 29 Sudoeste 0 -- -- 47
2019-06-25 15:00:00 23.9 16 Sur 34 Sur 0 -- -- 46
2019-06-25 14:00:00 22.4 18 Sur 32 Sudoeste 0 -- -- 51
2019-06-25 13:00:00 22 17 Sur 33 Sudoeste 0 -- -- 51
2019-06-25 12:00:00 21.3 15 Sur 31 Sudoeste 0 -- -- 62
2019-06-25 11:00:00 20.6 17 Sur 27 Sur 0 -- -- 65
2019-06-25 10:00:00 19.2 17 Sur 28 Sur 0 -- -- 70
2019-06-25 09:00:00 16.8 12 Sur 19 Sur 0 -- -- 79
2019-06-25 08:00:00 15.2 12 Sur 22 Sur 0 -- -- 83
2019-06-25 07:00:00 10 4 Nordeste 7 Nordeste 0 -- -- 92
2019-06-25 06:00:00 9.9 0 Calma 5 Sudoeste 0 -- -- 93
2019-06-25 05:00:00 8.7 0 Calma 4 Sur 0 -- -- 96
2019-06-25 04:00:00 8.5 0 Calma 4 Sur 0 -- -- 95
2019-06-25 03:00:00 9.2 0 Calma 8 Sudoeste 0 -- -- 90
2019-06-25 02:00:00 9.6 3 Sur 7 Sudoeste 0 -- -- 90
2019-06-25 01:00:00 10.4 0 Calma 6 Sur 0 -- -- 86
2019-06-25 00:00:00 12.6 2 Sur 6 Sur 0 -- -- 80
2019-06-24 23:00:00 14.3 5 Sudoeste 9 Sudoeste 0 -- -- 77
2019-06-24 22:00:00 17.8 5 Sur 9 Sur 0 -- -- 65
2019-06-24 21:00:00 20.8 2 Sudoeste 23 Sur 0 -- -- 50
2019-06-24 20:00:00 22.1 12 Sur 26 Sur 0 -- -- 43
2019-06-24 19:00:00 24.9 12 Sur 27 Sur 0 -- -- 42
2019-06-24 18:00:00 24.8 14 Sur 38 Sudoeste 0 -- -- 41
2019-06-24 17:00:00 24 15 Sur 33 Sudoeste 0 -- -- 43
2019-06-24 16:00:00 23.2 14 Sur 30 Sudoeste 0 -- -- 45
2019-06-24 15:00:00 23.1 15 Sur 33 Sudoeste 0 -- -- 46
2019-06-24 14:00:00 22.6 17 Sur 35 Sudeste 0 -- -- 46
2019-06-24 13:00:00 21.5 19 Sur 36 Sudoeste 0 -- -- 45
2019-06-24 12:00:00 21.3 18 Sur 31 Sur 0 -- -- 47
2019-06-24 11:00:00 19.3 12 Sur 23 Sudoeste 0 -- -- 54
2019-06-24 10:00:00 18.7 11 Sur 19 Sur 0 -- -- 51
2019-06-24 09:00:00 15.2 5 Norte 8 Nordeste 0 -- -- 60
2019-06-24 08:00:00 12 0 Calma 3 Sur 0 -- -- 76
2019-06-24 07:00:00 9.4 0 Calma 4 Sudoeste 0 -- -- 76
2019-06-24 06:00:00 9.4 0 Calma 4 Sudoeste 0 -- -- 72
2019-06-24 05:00:00 11 0 Calma 7 Sur 0 -- -- 69
2019-06-24 04:00:00 14.6 6 Sur 12 Sudeste 0 -- -- 46
2019-06-24 03:00:00 12.8 0 Calma 9 Sur 0 -- -- 68
2019-06-24 02:00:00 13.2 0 Calma 4 Sudeste 0 -- -- 68
2019-06-24 01:00:00 13.5 2 Sudoeste 3 Sudoeste 0 -- -- 66
2019-06-24 00:00:00 14 3 Sur 6 Sur 0 -- -- 62
2019-06-23 23:00:00 14.6 3 Sur 8 Sudoeste 0 -- -- 60
2019-06-23 22:00:00 16.7 4 Sudoeste 12 Sudeste 0 -- -- 52
2019-06-23 21:00:00 19.4 8 Sudeste 13 Sudeste 0 -- -- 43
2019-06-23 20:00:00 21.2 7 Sur 19 Sur 0 -- -- 36
2019-06-23 19:00:00 21.9 9 Sur 21 Sur 0 -- -- 34
2019-06-23 18:00:00 22.4 10 Sudoeste 27 Sudoeste 0 -- -- 33
2019-06-23 17:00:00 23.1 13 Sur 29 Sur 0 -- -- 32
2019-06-23 16:00:00 23.1 18 Sur 39 Sudoeste 0 -- -- 32
2019-06-23 15:00:00 23.8 20 Sudoeste 37 Sudoeste 0 -- -- 31
2019-06-23 14:00:00 21.3 22 Sur 39 Sur 0 -- -- 37
2019-06-23 13:00:00 21.1 18 Sur 33 Sur 0 -- -- 35
2019-06-23 12:00:00 19.1 18 Sur 42 Sur 0 -- -- 34
2019-06-23 11:00:00 19.6 19 Sur 36 Sudeste 0 -- -- 31
2019-06-23 10:00:00 19.3 14 Sur 29 Sur 0 -- -- 34
2019-06-23 09:00:00 13.4 3 Nordeste 5 Nordeste 0 -- -- 64
2019-06-23 08:00:00 7.9 2 Sur 5 Sudoeste 0 -- -- 83
2019-06-23 07:00:00 5 0 Calma 5 Sudoeste 0 -- -- 88
2019-06-23 06:00:00 5 3 Sur 5 Sur 0 -- -- 88
2019-06-23 05:00:00 5.7 2 Sur 7 Sur 0 -- -- 84
2019-06-23 04:00:00 6 2 Sudoeste 6 Sudeste 0 -- -- 83
2019-06-23 03:00:00 6.9 2 Sur 8 Sur 0 -- -- 80
2019-06-23 02:00:00 8.1 3 Sur 9 Sudeste 0 -- -- 78
2019-06-23 01:00:00 9.3 2 Sur 9 Sur 0 -- -- 73
2019-06-23 00:00:00 10.8 3 Sur 7 Sur 0 -- -- 69
2019-06-22 23:00:00 12.6 3 Sur 7 Sudeste 0 -- -- 62
2019-06-22 22:00:00 17.1 2 Este 11 Oeste 0 -- -- 51
2019-06-22 21:00:00 21.4 6 Oeste 24 Sudoeste 0 -- -- 37
2019-06-22 20:00:00 23.6 14 Sur 28 Sudoeste 0 -- -- 34
2019-06-22 19:00:00 23.6 16 Sur 30 Sur 0 -- -- 35
2019-06-22 18:00:00 23.9 14 Sur 30 Sur 0 -- -- 33
2019-06-22 17:00:00 23.1 17 Sur 33 Sur 0 -- -- 35
2019-06-22 16:00:00 22.9 15 Sur 32 Sur 0 -- -- 35
2019-06-22 15:00:00 22.2 17 Sur 33 Sur 0 -- -- 42
2019-06-22 14:00:00 21.7 12 Sur 26 Sur 0 -- -- 42
2019-06-22 13:00:00 21.8 14 Sur 29 Sur 0 -- -- 42
2019-06-22 12:00:00 20.9 11 Sudoeste 19 Sur 0 -- -- 47
2019-06-22 11:00:00 19.8 4 Nordeste 9 Norte 0 -- -- 50
2019-06-22 10:00:00 16.7 2 Nordeste 4 Nordeste 0 -- -- 56
2019-06-22 09:00:00 10.7 0 Calma 3 Nordeste 0 -- -- 72
2019-06-22 08:00:00 5.3 0 Calma 3 Sudoeste 0 -- -- 97
2019-06-22 07:00:00 3 2 Sur 7 Sudoeste 0 -- -- 97
2019-06-22 06:00:00 3.2 0 Calma 5 Sur 0 -- -- 94
2019-06-22 05:00:00 3.4 0 Calma 4 Sur 0 -- -- 94
2019-06-22 04:00:00 4.5 2 Sur 5 Sur 0 -- -- 91
2019-06-22 03:00:00 5.4 2 Sur 5 Sur 0 -- -- 89
2019-06-22 02:00:00 6.3 2 Sur 6 Sudeste 0 -- -- 84
2019-06-22 01:00:00 7.5 3 Sur 8 Sudeste 0 -- -- 80
2019-06-22 00:00:00 8.9 4 Sur 8 Sudeste 0 -- -- 74
2019-06-21 23:00:00 10.6 4 Sur 6 Sudeste 0 -- -- 69
2019-06-21 22:00:00 14.2 3 Sur 17 Norte 0 -- -- 59
2019-06-21 21:00:00 19.6 10 Norte 19 Norte 0 -- -- 43
2019-06-21 20:00:00 20.5 14 Norte 23 Norte 0 -- -- 43
2019-06-21 19:00:00 22.3 3 Nordeste 23 Norte 0 -- -- 40
2019-06-21 18:00:00 21.7 13 Nordeste 26 Nordeste 0 -- -- 44
2019-06-21 17:00:00 21.4 4 Nordeste 17 Norte 0 -- -- 44
2019-06-21 16:00:00 21 5 Sudoeste 15 Sudoeste 0 -- -- 46
2019-06-21 15:00:00 19.6 8 Sudoeste 18 Sudeste 0 -- -- 52
2019-06-21 14:00:00 18.8 8 Sur 16 Sudeste 0 -- -- 53
2019-06-21 13:00:00 17.2 7 Sur 23 Sudoeste 0 -- -- 61
2019-06-21 12:00:00 18.4 14 Sudoeste 23 Sudoeste 0 -- -- 56
2019-06-21 11:00:00 15.3 9 Sur 16 Sur 0 -- -- 67
2019-06-21 10:00:00 16.3 5 Norte 9 Norte 0 -- -- 61
2019-06-21 09:00:00 13 0 Calma 4 Este 0 -- -- 72
2019-06-21 08:00:00 4.7 0 Calma 3 Sudeste 0 -- -- 99
2019-06-21 07:00:00 4.1 0 Calma 7 Sudeste 0 -- -- 97
2019-06-21 06:00:00 4.6 0 Calma 7 Sudoeste 0 -- -- 94
2019-06-21 05:00:00 5.2 4 Sur 7 Sudoeste 0 -- -- 95
2019-06-21 04:00:00 6.9 4 Sur 8 Sudeste 0 -- -- 91
2019-06-21 03:00:00 8.5 4 Sudeste 6 Sudeste 0 -- -- 86
2019-06-21 02:00:00 11 0 Calma 8 Sudoeste 0 -- -- 79
2019-06-21 01:00:00 9.7 0 Calma 10 Noroeste 0 -- -- 82
2019-06-21 00:00:00 14.2 5 Noroeste 13 Noroeste 0 -- -- 67
2019-06-20 23:00:00 13.5 3 Sudeste 8 Sudeste 0 -- -- 67
2019-06-20 22:00:00 15.5 0 Calma 20 Sur 0 -- -- 60
2019-06-20 21:00:00 18.5 14 Sur 24 Sur 0 -- -- 50
2019-06-20 20:00:00 19.2 16 Sur 30 Sur 0 -- -- 48
2019-06-20 19:00:00 20.6 18 Sur 35 Sudoeste 0 -- -- 44
2019-06-20 18:00:00 21.3 19 Sur 41 Sur 0 -- -- 40
2019-06-20 17:00:00 21.9 18 Sur 34 Sur 0 -- -- 38
2019-06-20 16:00:00 21.5 18 Sur 35 Sur 0 -- -- 42
2019-06-20 15:00:00 20.4 17 Sur 37 Sudoeste 0 -- -- 47
2019-06-20 14:00:00 19.3 17 Sur 31 Sur 0 -- -- 51
2019-06-20 13:00:00 17.8 17 Sur 31 Sudoeste 0 -- -- 62
2019-06-20 12:00:00 17.3 12 Sudoeste 26 Sur 0 -- -- 60
2019-06-20 11:00:00 16.5 10 Sur 15 Sur 0 -- -- 63
2019-06-20 10:00:00 15.4 0 Calma 4 Noroeste 0 -- -- 68
2019-06-20 09:00:00 11.8 0 Calma 4 Norte 0 -- -- 79
2019-06-20 08:00:00 9.1 0 Calma 3 Sur 0 -- -- 94
2019-06-20 07:00:00 6.3 2 Sur 4 Sudeste 0 -- -- 94
2019-06-20 06:00:00 7.3 2 Sur 5 Sudoeste 0 -- -- 92
2019-06-20 05:00:00 8.4 2 Sur 6 Sudoeste 0 -- -- 90
2019-06-20 04:00:00 8.6 3 Sur 5 Sur 0 -- -- 88
2019-06-20 03:00:00 9.8 2 Sudoeste 6 Sudoeste 0 -- -- 84
2019-06-20 02:00:00 10.7 3 Sur 8 Sudoeste 0 -- -- 82
2019-06-20 01:00:00 11.2 3 Sur 7 Sudoeste 0 -- -- 78
2019-06-20 00:00:00 11 2 Sur 9 Sur 0 -- -- 79
2019-06-19 23:00:00 11.1 6 Sur 11 Sudoeste 0 -- -- 79
2019-06-19 22:00:00 13.8 6 Sur 14 Noroeste 0 -- -- 71
2019-06-19 21:00:00 17.7 8 Sudoeste 21 Sur 0 -- -- 56
2019-06-19 20:00:00 17.7 11 Sur 24 Sur 0 -- -- 60
2019-06-19 19:00:00 18.9 14 Sur 32 Sudoeste 0 -- -- 56
2019-06-19 18:00:00 19.4 19 Sur 35 Sudoeste 0 -- -- 56
2019-06-19 17:00:00 19.7 19 Sur 38 Sur 0 -- -- 55
2019-06-19 16:00:00 18.9 22 Sur 42 Sudoeste 0 -- -- 55
2019-06-19 15:00:00 17.7 22 Sur 41 Sudoeste 0 -- -- 61
2019-06-19 14:00:00 17 18 Sur 33 Sur 0 -- -- 71
2019-06-19 13:00:00 16 19 Sur 32 Sur 0 -- -- 77
2019-06-19 12:00:00 15.3 18 Sur 30 Sudoeste 0 -- -- 78
2019-06-19 11:00:00 14.2 18 Sur 30 Sudoeste 0 -- -- 78
2019-06-19 10:00:00 14.1 13 Sudoeste 27 Sur 0 -- -- 79
2019-06-19 09:00:00 13.4 14 Sur 26 Sur 0 -- -- 79
2019-06-19 08:00:00 11 10 Sudoeste 20 Sudoeste 0 -- -- 90
2019-06-19 07:00:00 10.2 8 Sudoeste 21 Sur 0 -- -- 92
2019-06-19 06:00:00 10.9 6 Sur 25 Sudoeste 0 -- -- 86
2019-06-19 05:00:00 12 10 Sur 25 Sudoeste 0 -- -- 84
2019-06-19 04:00:00 12.6 9 Oeste 22 Sudoeste 0 -- -- 84
2019-06-19 03:00:00 12.9 12 Sudoeste 21 Oeste 0 -- -- 84
2019-06-19 02:00:00 12.6 8 Sudoeste 22 Sudoeste 0 -- -- 84
2019-06-19 01:00:00 13.8 12 Sudoeste 22 Sudoeste 0 -- -- 78
2019-06-19 00:00:00 13.8 4 Sur 15 Sudoeste 0 -- -- 74
2019-06-18 23:00:00 14.4 5 Sur 12 Oeste 0 -- -- 70
2019-06-18 22:00:00 15.2 3 Sudoeste 22 Sur 0 -- -- 64
2019-06-18 21:00:00 18.1 12 Sur 27 Sudoeste 0 -- -- 53
2019-06-18 20:00:00 18 11 Sudoeste 31 Sur 0 -- -- 52
2019-06-18 19:00:00 19.8 14 Sudoeste 37 Sur 0 -- -- 49
2019-06-18 18:00:00 20.6 15 Sur 47 Sur 0 -- -- 47
2019-06-18 17:00:00 20.4 25 Sur 50 Sudoeste 0 -- -- 41
2019-06-18 16:00:00 20.2 24 Sur 49 Sur 0 -- -- 34
2019-06-18 15:00:00 19.9 25 Sur 55 Sur 0 -- -- 28
2019-06-18 14:00:00 19 24 Sur 46 Sur 0 -- -- 28
2019-06-18 13:00:00 18.5 23 Sur 44 Sur 0 -- -- 25
2019-06-18 12:00:00 17.8 19 Sur 42 Sudoeste 0 -- -- 30
2019-06-18 11:00:00 16.7 19 Sur 44 Sur 0 -- -- 37
2019-06-18 10:00:00 16.1 18 Sur 32 Sur 0 -- -- 37
2019-06-18 09:00:00 15.3 13 Sudoeste 23 Sudoeste 0 -- -- 50
2019-06-18 08:00:00 9.4 6 Sur 14 Sudeste 0 -- -- 65
2019-06-18 07:00:00 3.6 2 Sudoeste 11 Nordeste 0 -- -- 76
2019-06-18 06:00:00 5.1 3 Norte 9 Sur 0 -- -- 72
2019-06-18 05:00:00 5.5 0 Calma 4 Noroeste 0 -- -- 72
2019-06-18 04:00:00 7 2 Nordeste 6 Nordeste 0 -- -- 64
2019-06-18 03:00:00 8.2 3 Sur 8 Sudoeste 0 -- -- 60
2019-06-18 02:00:00 11.3 4 Sur 9 Sudoeste 0 -- -- 54
2019-06-18 01:00:00 12.7 3 Sudoeste 8 Sur 0 -- -- 52
2019-06-18 00:00:00 13.2 2 Sur 6 Sur 0 -- -- 53
2019-06-17 23:00:00 14.4 3 Sur 9 Sudoeste 0 -- -- 48
2019-06-17 22:00:00 16.2 6 Sur 10 Sur 0 -- -- 44
2019-06-17 21:00:00 20.1 4 Sur 14 Sur 0 -- -- 34
2019-06-17 20:00:00 23.8 9 Sur 21 Sur 0 -- -- 24
2019-06-17 19:00:00 22.4 6 Sur 22 Sur 0 -- -- 28
2019-06-17 18:00:00 23.9 14 Sur 30 Oeste 0 -- -- 30
2019-06-17 17:00:00 24 13 Sudoeste 35 Sur 0 -- -- 30
2019-06-17 16:00:00 23.2 13 Sur 33 Sudoeste 0 -- -- 31
2019-06-17 15:00:00 22.2 14 Sur 35 Sur 0 -- -- 31
2019-06-17 14:00:00 21.1 22 Sur 42 Sur 0 -- -- 32
2019-06-17 13:00:00 21 19 Sur 38 Sur 0 -- -- 32
2019-06-17 12:00:00 20 19 Sur 36 Sudoeste 0 -- -- 36
2019-06-17 11:00:00 20.1 13 Sur 27 Sur 0 -- -- 36
2019-06-17 10:00:00 17.9 4 Norte 10 Sur 0 -- -- 40
2019-06-17 09:00:00 13.3 0 Calma 3 Nordeste 0 -- -- 50
2019-06-17 08:00:00 3 0 Calma 5 Sur 0 -- -- 78
2019-06-17 07:00:00 0.8 0 Calma 4 Sur 0 -- -- 84
2019-06-17 06:00:00 0.9 2 Sur 4 Sur 0 -- -- 85
2019-06-17 05:00:00 1.7 0 Calma 5 Sur 0 -- -- 77
2019-06-17 04:00:00 2.3 0 Calma 5 Sur 0 -- -- 75
2019-06-17 03:00:00 3 0 Calma 5 Sur 0 -- -- 73
2019-06-17 02:00:00 4.2 2 Sur 5 Sudeste 0 -- -- 67
2019-06-17 01:00:00 5.5 3 Sur 8 Sur 0 -- -- 64
2019-06-17 00:00:00 7.7 4 Sur 7 Sur 0 -- -- 61
2019-06-16 23:00:00 11.8 6 Sur 11 Sur 0 -- -- 51
2019-06-16 22:00:00 17.7 8 Sur 24 Sur 0 -- -- 36
2019-06-16 21:00:00 20 12 Sur 26 Sudoeste 0 -- -- 32
2019-06-16 20:00:00 20.1 16 Sur 27 Sudoeste 0 -- -- 31
2019-06-16 19:00:00 20.4 16 Sur 31 Sur 0 -- -- 29
2019-06-16 18:00:00 21.7 19 Sur 39 Sudoeste 0 -- -- 27
2019-06-16 17:00:00 22.4 17 Sur 35 Sur 0 -- -- 26
2019-06-16 16:00:00 21.4 17 Sur 33 Sudoeste 0 -- -- 29
2019-06-16 15:00:00 20.4 14 Sur 28 Sur 0 -- -- 30
2019-06-16 14:00:00 20.3 13 Sudoeste 27 Sur 0 -- -- 30
2019-06-16 13:00:00 19.3 14 Sur 24 Sur 0 -- -- 34
2019-06-16 12:00:00 18.9 11 Sur 24 Sudoeste 0 -- -- 37
2019-06-16 11:00:00 18.2 10 Sur 21 Sur 0 -- -- 36
2019-06-16 10:00:00 15.2 2 Norte 7 Norte 0 -- -- 51
2019-06-16 09:00:00 11.3 0 Calma 4 Sudeste 0 -- -- 55
2019-06-16 08:00:00 1.6 2 Este 8 Sur 0 -- -- 94
2019-06-16 07:00:00 -0.7 0 Calma 7 Sur 0 -- -- 96
2019-06-16 06:00:00 0.1 4 Sur 8 Sudoeste 0 -- -- 93
2019-06-16 05:00:00 -0.1 3 Sur 5 Sudoeste 0 -- -- 94
2019-06-16 04:00:00 0.6 2 Sur 5 Sudoeste 0 -- -- 89
2019-06-16 03:00:00 1.7 2 Sudoeste 4 Sur 0 -- -- 87
2019-06-16 02:00:00 2.8 2 Sur 4 Sur 0 -- -- 83
2019-06-16 01:00:00 4.4 0 Calma 7 Sur 0 -- -- 77
2019-06-16 00:00:00 5.7 4 Sur 8 Sudoeste 0 -- -- 73